Time;durP1;ratioP1;P1;durP2;ratioP2;P2;SDS_P1;SDS_P2;PMS_P1;PMS_P2;Temp;Humidity;BMP_temperature;BMP_pressure;BME280_temperature;BME280_humidity;BME280_pressure;Samples;Min_cycle;Max_cycle;Signal;HPM_P1;HPM_P2
2023/05/27 00:00:46;;;;;;;16.77;4.57;;;8.90;99.90;;;;;;10136329;29;20208;-94
2023/05/27 00:05:49;;;;;;;12.87;4.13;;;8.90;99.90;;;;;;10119183;29;20228;-94
2023/05/27 00:10:52;;;;;;;9.87;4.57;;;8.90;99.90;;;;;;10118755;29;20582;-94
2023/05/27 00:15:55;;;;;;;7.23;4.03;;;8.80;99.90;;;;;;10135060;29;20212;-94
2023/05/27 00:20:58;;;;;;;17.73;4.87;;;9.00;99.90;;;;;;10134229;29;20216;-95
2023/05/27 00:26:01;;;;;;;11.60;4.20;;;8.90;99.90;;;;;;10117951;29;20608;-95
2023/05/27 00:31:03;;;;;;;15.63;5.27;;;8.70;99.90;;;;;;10134480;29;20577;-94
2023/05/27 00:36:06;;;;;;;5.40;2.93;;;8.70;99.90;;;;;;10117283;29;20257;-95
2023/05/27 00:41:12;;;;;;;10.50;4.43;;;9.00;99.90;;;;;;10117081;29;20272;-94
2023/05/27 00:46:15;;;;;;;7.80;3.37;;;9.40;99.90;;;;;;10134434;29;20232;-94
2023/05/27 00:51:17;;;;;;;12.93;5.03;;;9.80;99.90;;;;;;10133291;29;20266;-95
2023/05/27 00:56:21;;;;;;;14.43;6.37;;;9.90;99.90;;;;;;10117024;29;20216;-94
2023/05/27 01:01:25;;;;;;;12.80;5.00;;;9.60;99.90;;;;;;10132967;29;20212;-94
2023/05/27 01:06:51;;;;;;;17.10;5.10;;;9.10;99.90;;;;;;10133839;29;20640;-94
2023/05/27 01:12:05;;;;;;;9.63;4.40;;;8.80;99.90;;;;;;10105284;29;20276;-94
2023/05/27 01:17:09;;;;;;;11.00;3.97;;;8.50;99.90;;;;;;10117181;29;20237;-94
2023/05/27 01:22:13;;;;;;;9.37;4.47;;;8.50;99.90;;;;;;10132990;29;20220;-94
2023/05/27 01:27:16;;;;;;;8.47;3.60;;;8.70;99.90;;;;;;10116708;29;20591;-94
2023/05/27 01:32:47;;;;;;;10.57;3.83;;;9.00;99.90;;;;;;10139250;29;20292;-94
2023/05/27 01:37:53;;;;;;;10.13;4.43;;;9.30;99.90;;;;;;10139095;29;20260;-94
2023/05/27 01:43:00;;;;;;;11.70;5.40;;;8.90;99.90;;;;;;10123786;29;20216;-94
2023/05/27 01:48:03;;;;;;;10.80;4.23;;;8.70;99.90;;;;;;10138921;29;20228;-95
2023/05/27 01:53:06;;;;;;;9.77;5.10;;;8.30;99.90;;;;;;10123240;29;20216;-94
2023/05/27 01:58:09;;;;;;;9.00;5.23;;;8.00;99.90;;;;;;10140014;29;20212;-95
2023/05/27 02:03:11;;;;;;;9.03;4.57;;;7.90;99.90;;;;;;10122959;29;20216;-95
2023/05/27 02:08:14;;;;;;;10.77;4.70;;;7.70;99.90;;;;;;10139545;29;20235;-95
2023/05/27 02:13:17;;;;;;;8.23;4.10;;;7.70;99.90;;;;;;10122663;29;20216;-94
2023/05/27 02:18:20;;;;;;;7.57;4.23;;;7.50;99.90;;;;;;10137889;29;20216;-94
2023/05/27 02:23:23;;;;;;;14.47;5.47;;;7.60;99.90;;;;;;10121658;29;20588;-95
2023/05/27 02:28:27;;;;;;;11.50;4.20;;;7.60;99.90;;;;;;10138857;29;20287;-94
2023/05/27 02:33:30;;;;;;;11.07;4.67;;;7.50;99.90;;;;;;10121656;29;20228;-94
2023/05/27 02:38:33;;;;;;;8.93;4.00;;;7.50;99.90;;;;;;10138233;29;20216;-94
2023/05/27 02:43:36;;;;;;;16.23;4.90;;;7.50;99.90;;;;;;10120545;29;20216;-95
2023/05/27 02:48:38;;;;;;;10.07;5.30;;;7.50;99.90;;;;;;10121452;29;20240;-95
2023/05/27 02:53:41;;;;;;;9.10;4.33;;;7.60;99.90;;;;;;10121045;29;20216;-94
2023/05/27 02:58:45;;;;;;;11.63;4.77;;;7.90;99.90;;;;;;10136480;29;20224;-94
2023/05/27 03:03:47;;;;;;;10.67;4.30;;;8.00;99.90;;;;;;10137626;29;20256;-94
2023/05/27 03:08:50;;;;;;;9.60;5.00;;;7.70;99.90;;;;;;10137488;29;20316;-94
2023/05/27 03:13:53;;;;;;;9.73;4.33;;;7.70;99.90;;;;;;10120306;29;20212;-94
2023/05/27 03:18:55;;;;;;;10.07;5.17;;;7.70;99.90;;;;;;10136948;29;20208;-94
2023/05/27 03:23:58;;;;;;;9.67;4.83;;;7.50;99.90;;;;;;10135221;29;20220;-94
2023/05/27 03:29:01;;;;;;;8.90;4.27;;;7.70;99.90;;;;;;10135070;29;20239;-95
2023/05/27 03:34:03;;;;;;;13.27;5.13;;;7.70;99.90;;;;;;10119497;29;20264;-95
2023/05/27 03:39:06;;;;;;;17.80;5.40;;;7.70;99.90;;;;;;10119407;29;20215;-94
2023/05/27 03:44:11;;;;;;;11.07;4.63;;;8.00;99.90;;;;;;10119101;29;20223;-95
2023/05/27 03:49:13;;;;;;;9.37;4.43;;;7.90;99.90;;;;;;10119101;29;20236;-95
2023/05/27 03:54:16;;;;;;;7.63;3.83;;;8.20;99.90;;;;;;10135713;29;20237;-95
2023/05/27 03:59:21;;;;;;;11.63;4.97;;;9.00;99.90;;;;;;10126939;29;20315;-95
2023/05/27 04:04:24;;;;;;;11.80;4.70;;;9.10;99.90;;;;;;10118612;29;20220;-94
2023/05/27 04:09:28;;;;;;;5.63;3.20;;;8.90;99.90;;;;;;10133756;29;20231;-95
2023/05/27 04:14:31;;;;;;;9.60;4.10;;;9.60;99.90;;;;;;10118221;29;20284;-94
2023/05/27 04:19:34;;;;;;;9.90;4.57;;;10.10;99.90;;;;;;10133719;29;20742;-95
2023/05/27 04:24:39;;;;;;;11.30;4.90;;;10.20;99.90;;;;;;10117936;29;20257;-95
2023/05/27 04:29:43;;;;;;;11.83;5.70;;;10.40;99.90;;;;;;10117646;29;20293;-93
2023/05/27 04:34:47;;;;;;;10.73;4.77;;;10.40;99.90;;;;;;10117550;29;20232;-95
2023/05/27 04:39:49;;;;;;;7.33;3.87;;;10.30;99.90;;;;;;10117382;29;20224;-94
2023/05/27 04:44:53;;;;;;;9.57;4.37;;;10.50;99.90;;;;;;10117595;29;20216;-95
2023/05/27 04:49:56;;;;;;;10.63;3.87;;;10.90;99.90;;;;;;10134176;29;20649;-95
2023/05/27 04:54:59;;;;;;;12.57;5.13;;;11.10;99.90;;;;;;10117018;29;20216;-94
2023/05/27 05:05:16;;;;;;;10.73;4.00;;;11.60;99.90;;;;;;10107622;29;20220;-94
2023/05/27 05:10:20;;;;;;;7.63;3.60;;;11.70;99.90;;;;;;10129310;29;20236;-94
2023/05/27 05:15:25;;;;;;;9.17;4.27;;;11.80;99.90;;;;;;10145752;29;20208;-95
2023/05/27 05:20:31;;;;;;;7.50;3.40;;;12.00;99.90;;;;;;10129831;29;20218;-94
2023/05/27 05:25:37;;;;;;;12.73;3.97;;;12.30;99.90;;;;;;10129715;29;20220;-94
2023/05/27 05:30:42;;;;;;;8.53;3.93;;;12.50;99.90;;;;;;10129378;29;20559;-94
2023/05/27 05:35:48;;;;;;;5.60;3.30;;;13.00;99.90;;;;;;10144723;29;20284;-93
2023/05/27 05:40:57;;;;;;;10.10;4.23;;;12.60;99.90;;;;;;10129278;29;20674;-94
2023/05/27 05:46:01;;;;;;;6.50;3.20;;;12.60;99.90;;;;;;10146386;29;20209;-94
2023/05/27 05:51:05;;;;;;;15.20;4.72;;;12.80;99.90;;;;;;10129480;29;20208;-94
2023/05/27 05:56:08;;;;;;;10.47;4.00;;;13.10;99.90;;;;;;10144304;29;20216;-95
2023/05/27 06:01:12;;;;;;;14.17;4.10;;;13.10;99.90;;;;;;10129085;29;20217;-94
2023/05/27 06:06:17;;;;;;;9.40;3.27;;;13.30;99.90;;;;;;10144666;29;20698;-94
2023/05/27 06:11:37;;;;;;;6.17;3.03;;;13.60;99.90;;;;;;10144340;29;20268;-94
2023/05/27 06:16:40;;;;;;;6.63;2.97;;;13.60;99.90;;;;;;10124932;29;20564;-95
2023/05/27 06:21:44;;;;;;;11.93;3.33;;;13.80;99.90;;;;;;10138314;29;20212;-94
2023/05/27 06:27:05;;;;;;;9.87;3.20;;;14.20;99.90;;;;;;10140800;29;20747;-93
2023/05/27 06:32:08;;;;;;;11.33;4.00;;;14.30;99.90;;;;;;10122135;29;20228;-95
2023/05/27 06:37:11;;;;;;;6.97;3.57;;;14.70;99.90;;;;;;10122194;29;20237;-94
2023/05/27 06:42:14;;;;;;;6.33;3.43;;;14.90;99.90;;;;;;10122235;29;20238;-95
2023/05/27 06:47:30;;;;;;;5.47;2.80;;;15.00;98.40;;;;;;10121900;29;20622;-94
2023/05/27 06:52:33;;;;;;;9.30;3.57;;;15.10;97.50;;;;;;10121579;29;20216;-94
2023/05/27 06:57:47;;;;;;;6.90;2.57;;;15.30;97.50;;;;;;10121248;29;20582;-93
2023/05/27 07:02:57;;;;;;;8.03;3.33;;;15.40;91.20;;;;;;10121203;29;20280;-94
2023/05/27 07:07:59;;;;;;;6.03;2.90;;;15.90;94.20;;;;;;10120817;29;20264;-94
2023/05/27 07:13:02;;;;;;;5.67;2.13;;;16.00;94.90;;;;;;10136417;29;20265;-95
2023/05/27 07:18:16;;;;;;;7.20;2.63;;;16.10;94.00;;;;;;10136292;29;20213;-94
2023/05/27 07:23:20;;;;;;;7.30;2.27;;;16.20;85.80;;;;;;10105413;29;20598;-94
2023/05/27 07:28:32;;;;;;;4.77;2.33;;;16.10;74.40;;;;;;10119889;29;20228;-95
2023/05/27 07:33:52;;;;;;;3.40;2.07;;;16.30;86.30;;;;;;10119552;29;20261;-95
2023/05/27 07:38:56;;;;;;;3.40;2.10;;;16.50;81.90;;;;;;10119741;29;20592;-95
2023/05/27 07:43:59;;;;;;;5.78;2.10;;;16.70;76.10;;;;;;10119760;29;20264;-95
2023/05/27 07:49:01;;;;;;;2.43;2.07;;;16.80;65.00;;;;;;10119682;29;20236;-95
2023/05/27 07:54:06;;;;;;;5.55;1.80;;;17.00;74.90;;;;;;10119198;29;20216;-95
2023/05/27 07:59:09;;;;;;;3.15;2.78;;;17.00;56.80;;;;;;10119086;29;20272;-94
2023/05/27 08:04:12;;;;;;;2.83;1.97;;;17.00;57.80;;;;;;10119188;29;20260;-93
2023/05/27 08:09:44;;;;;;;3.27;2.00;;;17.20;73.90;;;;;;10118495;29;20256;-95
2023/05/27 08:15:08;;;;;;;6.37;2.40;;;17.50;73.90;;;;;;10118769;29;20213;-94
2023/05/27 08:20:36;;;;;;;1.87;1.37;;;17.60;48.90;;;;;;10120591;29;20678;-95
2023/05/27 08:25:58;;;;;;;6.33;2.97;;;17.60;47.30;;;;;;10135726;29;20704;-94
2023/05/27 08:31:08;;;;;;;2.23;1.80;;;18.10;67.60;;;;;;10118001;29;20236;-96
2023/05/27 08:36:25;;;;;;;2.33;2.07;;;18.10;71.40;;;;;;10111270;29;20642;-95
2023/05/27 08:41:30;;;;;;;4.03;1.90;;;18.10;61.10;;;;;;10132625;29;20272;-94
2023/05/27 08:46:35;;;;;;;5.97;2.75;;;18.20;39.40;;;;;;10117607;29;20350;-94
2023/05/27 08:51:40;;;;;;;5.90;1.97;;;18.00;30.40;;;;;;10132652;29;20212;-95
2023/05/27 08:56:45;;;;;;;3.30;1.77;;;18.00;39.80;;;;;;10132902;29;20213;-95
2023/05/27 09:01:49;;;;;;;3.83;2.13;;;18.20;34.60;;;;;;10148110;29;20208;-95
2023/05/27 09:06:52;;;;;;;4.22;2.00;;;18.50;47.90;;;;;;10148000;29;20582;-96
2023/05/27 09:11:59;;;;;;;4.18;1.65;;;18.50;48.30;;;;;;10117394;29;20552;-95
2023/05/27 09:17:06;;;;;;;7.90;1.87;;;18.60;32.80;;;;;;10132799;29;20271;-95
2023/05/27 09:22:09;;;;;;;6.37;1.83;;;18.60;46.00;;;;;;10132067;29;20216;-94
2023/05/27 09:27:12;;;;;;;3.13;1.70;;;18.50;25.20;;;;;;10117143;29;20292;-95
2023/05/27 09:32:24;;;;;;;2.88;1.42;;;18.50;29.50;;;;;;10133240;29;20288;-95
2023/05/27 09:37:31;;;;;;;5.90;1.80;;;18.50;36.10;;;;;;10116328;29;20753;-94
2023/05/27 09:42:45;;;;;;;5.05;1.80;;;18.50;26.90;;;;;;10116338;29;20702;-94
2023/05/27 09:47:49;;;;;;;4.87;1.70;;;18.50;27.90;;;;;;10131966;29;20236;-95
2023/05/27 09:52:55;;;;;;;4.72;1.80;;;18.70;39.00;;;;;;10121813;29;20245;-93
2023/05/27 09:58:13;;;;;;;3.03;2.00;;;18.80;30.00;;;;;;10140146;29;20244;-95
2023/05/27 10:03:24;;;;;;;2.88;1.50;;;19.10;45.40;;;;;;10139080;29;20220;-95
2023/05/27 10:08:26;;;;;;;2.13;1.52;;;19.00;26.30;;;;;;10140241;29;20236;-95
2023/05/27 10:13:29;;;;;;;2.37;2.10;;;19.00;31.70;;;;;;10139961;29;20319;-95
2023/05/27 10:18:33;;;;;;;2.07;1.37;;;19.20;43.40;;;;;;10139895;29;20264;-94
2023/05/27 10:23:36;;;;;;;4.93;1.60;;;19.20;34.20;;;;;;10139565;29;20249;-95
2023/05/27 10:28:40;;;;;;;4.05;1.20;;;19.20;22.70;;;;;;10138965;29;20653;-94
2023/05/27 10:33:45;;;;;;;3.57;1.83;;;19.40;26.90;;;;;;10122278;29;20730;-93
2023/05/27 10:39:16;;;;;;;4.33;1.47;;;19.40;29.90;;;;;;10137829;29;20261;-94
2023/05/27 10:44:35;;;;;;;3.45;1.58;;;19.50;23.50;;;;;;10139066;29;20268;-93
2023/05/27 10:49:39;;;;;;;4.73;1.10;;;19.60;31.90;;;;;;10126742;29;20666;-94
2023/05/27 10:54:45;;;;;;;2.35;1.33;;;19.70;21.20;;;;;;10124499;29;20224;-94
2023/05/27 10:59:52;;;;;;;2.30;2.07;;;;;;;;;;10124267;29;20280;-95
2023/05/27 11:04:58;;;;;;;5.10;1.25;;;19.70;35.40;;;;;;10123969;29;20249;-94
2023/05/27 11:10:00;;;;;;;3.10;1.73;;;19.50;22.60;;;;;;10138667;29;20929;-95
2023/05/27 11:15:03;;;;;;;1.98;1.70;;;19.30;24.60;;;;;;10139970;29;20256;-94
2023/05/27 11:20:07;;;;;;;2.23;1.77;;;19.40;31.50;;;;;;10139960;29;20204;-94
2023/05/27 11:25:10;;;;;;;4.40;2.43;;;19.60;25.00;;;;;;10137498;29;20244;-94
2023/05/27 11:30:13;;;;;;;2.43;1.63;;;19.60;26.20;;;;;;10140143;29;20571;-94
2023/05/27 11:35:17;;;;;;;6.88;2.10;;;19.70;28.10;;;;;;10139417;29;20236;-93
2023/05/27 11:40:20;;;;;;;5.50;1.75;;;19.50;24.80;;;;;;10142039;29;20256;-94
2023/05/27 11:45:23;;;;;;;5.03;1.70;;;19.60;19.40;;;;;;10124314;29;20213;-95
2023/05/27 11:50:28;;;;;;;1.95;1.23;;;19.70;20.40;;;;;;10142106;29;20232;-93
2023/05/27 11:55:31;;;;;;;5.18;1.65;;;19.70;18.90;;;;;;10138966;29;20276;-95
2023/05/27 12:00:34;;;;;;;7.57;1.60;;;19.60;24.70;;;;;;10136738;29;20261;-94
2023/05/27 12:05:36;;;;;;;3.58;1.50;;;19.70;18.10;;;;;;10138810;29;20200;-95
2023/05/27 12:10:39;;;;;;;2.95;1.70;;;19.70;17.80;;;;;;10121278;29;20284;-94
2023/05/27 12:15:42;;;;;;;4.27;1.43;;;19.80;22.60;;;;;;10135206;29;20213;-94
2023/05/27 12:20:45;;;;;;;2.05;1.20;;;19.80;19.40;;;;;;10139374;29;20275;-91
2023/05/27 12:25:47;;;;;;;6.70;1.88;;;19.80;17.40;;;;;;10167379;29;20215;-85
2023/05/27 12:30:50;;;;;;;6.80;1.60;;;19.80;15.70;;;;;;10173117;29;20272;-85
2023/05/27 12:47:20;;;;;;;8.77;1.70;;;19.70;15.90;;;;;;10166022;29;20282;-85
2023/05/27 12:52:23;;;;;;;8.63;1.65;;;19.90;16.10;;;;;;10168617;29;20267;-85
2023/05/27 12:57:25;;;;;;;5.38;1.52;;;19.90;13.10;;;;;;10132991;29;20264;-85
2023/05/27 13:02:28;;;;;;;10.18;2.10;;;20.10;20.10;;;;;;10129483;29;20316;-85
2023/05/27 13:07:31;;;;;;;2.65;1.60;;;20.20;24.20;;;;;;10128440;29;20248;-84
2023/05/27 13:12:34;;;;;;;5.03;1.35;;;20.30;17.90;;;;;;10128343;29;20992;-85
2023/05/27 13:17:37;;;;;;;3.90;1.65;;;20.50;26.80;;;;;;10128652;29;20773;-86
2023/05/27 13:22:41;;;;;;;4.35;1.20;;;20.60;24.00;;;;;;10136301;29;20248;-84
2023/05/27 13:27:44;;;;;;;2.15;1.15;;;20.60;24.40;;;;;;10139804;29;20307;-85
2023/05/27 13:32:47;;;;;;;3.10;1.10;;;20.70;18.70;;;;;;10172167;29;20247;-85
2023/05/27 13:37:50;;;;;;;2.15;0.98;;;20.60;20.90;;;;;;10172782;29;20239;-85
2023/05/27 13:42:52;;;;;;;4.10;1.60;;;20.80;24.90;;;;;;10157240;29;20263;-86
2023/05/27 13:47:58;;;;;;;2.70;1.30;;;20.90;27.70;;;;;;10196208;29;20693;-85
2023/05/27 13:53:01;;;;;;;4.00;1.65;;;20.90;24.30;;;;;;10206623;29;20246;-85
2023/05/27 13:58:03;;;;;;;3.95;1.52;;;21.00;16.60;;;;;;10208192;29;20266;-85
2023/05/27 14:03:06;;;;;;;2.30;1.50;;;20.80;20.10;;;;;;10181668;29;20243;-85
2023/05/27 14:08:09;;;;;;;9.43;2.47;;;20.70;17.60;;;;;;10208242;29;20262;-85
2023/05/27 14:13:12;;;;;;;5.53;1.63;;;20.80;23.80;;;;;;10203402;29;20298;-85
2023/05/27 14:18:14;;;;;;;6.30;2.20;;;21.00;23.10;;;;;;10202772;29;20246;-85
2023/05/27 14:23:17;;;;;;;1.75;1.17;;;20.90;13.80;;;;;;10176711;29;20294;-86
2023/05/27 14:28:20;;;;;;;3.10;1.30;;;21.00;24.70;;;;;;10168109;29;20255;-86
2023/05/27 14:33:22;;;;;;;2.63;1.05;;;21.10;26.60;;;;;;10210272;29;20272;-86
2023/05/27 14:38:25;;;;;;;2.08;0.70;;;21.10;18.90;;;;;;10190424;29;20648;-84
2023/05/27 14:43:27;;;;;;;3.45;1.02;;;21.10;19.20;;;;;;10212136;29;20337;-85
2023/05/27 14:48:30;;;;;;;7.53;1.50;;;20.90;16.20;;;;;;10194096;29;20262;-83
2023/05/27 14:53:32;;;;;;;4.88;1.15;;;20.90;13.80;;;;;;10211919;29;20290;-85
2023/05/27 14:58:35;;;;;;;2.75;1.15;;;20.70;12.00;;;;;;10205275;29;20302;-85
2023/05/27 15:03:37;;;;;;;4.32;1.40;;;20.60;12.30;;;;;;10171636;29;20275;-85
2023/05/27 15:08:40;;;;;;;1.63;1.00;;;20.60;15.80;;;;;;10170999;29;20300;-84
2023/05/27 15:13:43;;;;;;;3.55;1.25;;;20.80;20.70;;;;;;10139311;29;20267;-84
2023/05/27 15:18:45;;;;;;;1.80;1.38;;;20.90;25.90;;;;;;10180363;29;20707;-84
2023/05/27 15:23:48;;;;;;;5.07;1.08;;;21.00;24.70;;;;;;10192898;29;20736;-84
2023/05/27 15:28:50;;;;;;;3.78;1.30;;;21.00;19.70;;;;;;10191933;29;20266;-83
2023/05/27 15:33:53;;;;;;;3.33;1.45;;;20.80;12.80;;;;;;10192854;29;20227;-84
2023/05/27 15:38:56;;;;;;;6.38;1.05;;;20.70;13.10;;;;;;10203429;29;20636;-85
2023/05/27 15:43:59;;;;;;;2.42;1.30;;;20.70;25.20;;;;;;10201049;29;20266;-85
2023/05/27 15:49:02;;;;;;;1.52;1.20;;;20.80;22.10;;;;;;10171228;29;20255;-85
2023/05/27 15:54:04;;;;;;;1.88;0.90;;;20.80;16.80;;;;;;10174328;29;20235;-84
2023/05/27 15:59:07;;;;;;;5.05;0.95;;;20.70;15.20;;;;;;10179360;29;20318;-84
2023/05/27 16:04:10;;;;;;;1.92;1.08;;;20.60;16.90;;;;;;10205613;29;20258;-84
2023/05/27 16:09:12;;;;;;;5.70;1.35;;;20.20;9.00;;;;;;10180250;29;20334;-84
2023/05/27 16:14:15;;;;;;;3.53;1.70;;;20.20;10.60;;;;;;10177694;29;20692;-84
2023/05/27 16:19:18;;;;;;;3.05;1.38;;;20.20;10.10;;;;;;10208435;29;20271;-84
2023/05/27 16:24:21;;;;;;;5.38;1.50;;;20.30;9.20;;;;;;10188341;29;20766;-83
2023/05/27 16:29:24;;;;;;;7.28;1.98;;;20.40;9.40;;;;;;10206807;29;20274;-83
2023/05/27 16:34:26;;;;;;;3.17;2.05;;;20.40;8.70;;;;;;10190476;29;20290;-84
2023/05/27 16:39:29;;;;;;;5.03;1.60;;;20.50;9.00;;;;;;10207667;29;20598;-84
2023/05/27 16:44:31;;;;;;;3.72;1.40;;;20.50;8.60;;;;;;10185867;29;20263;-83
2023/05/27 16:49:34;;;;;;;3.63;1.25;;;20.40;8.80;;;;;;10150817;29;20270;-84
2023/05/27 16:54:36;;;;;;;3.05;1.50;;;20.30;10.50;;;;;;10199007;29;20310;-84
2023/05/27 16:59:39;;;;;;;7.03;1.17;;;20.20;9.50;;;;;;10202985;29;20703;-85
2023/05/27 17:04:42;;;;;;;5.95;1.88;;;20.00;9.50;;;;;;10192461;29;20279;-85
2023/05/27 17:09:45;;;;;;;3.80;1.65;;;19.90;11.10;;;;;;10206251;29;20723;-85
2023/05/27 17:14:47;;;;;;;13.25;2.20;;;19.70;9.40;;;;;;10179437;29;20334;-85
2023/05/27 17:19:50;;;;;;;8.48;1.63;;;19.40;12.40;;;;;;10175168;29;20274;-95
2023/05/27 17:24:53;;;;;;;3.83;1.48;;;19.30;15.10;;;;;;10208970;29;20211;-93
2023/05/27 17:29:55;;;;;;;7.00;1.92;;;19.30;15.10;;;;;;10192624;29;20262;-95
2023/05/27 17:34:58;;;;;;;14.48;1.90;;;19.20;14.00;;;;;;10210139;29;20207;-95
2023/05/27 17:40:01;;;;;;;10.27;1.88;;;19.00;13.90;;;;;;10147516;23;20733;-84
2023/05/27 17:45:04;;;;;;;11.20;2.38;;;18.80;14.70;;;;;;10138198;29;20231;-84
2023/05/27 17:50:07;;;;;;;9.98;2.63;;;18.50;14.70;;;;;;10130637;29;20273;-84
2023/05/27 17:55:11;;;;;;;2.22;1.40;;;18.30;14.70;;;;;;10145927;29;20264;-84
2023/05/27 18:00:14;;;;;;;11.10;2.22;;;18.00;15.30;;;;;;9776119;29;9999841;-85
2023/05/27 18:05:16;;;;;;;12.02;2.92;;;17.60;15.20;;;;;;9813253;29;10000237;-85
2023/05/27 18:10:21;;;;;;;9.27;3.22;;;17.20;16.20;;;;;;10147238;29;20379;-85
2023/05/27 18:15:24;;;;;;;13.57;2.63;;;16.70;18.30;;;;;;10141549;29;20243;-81
2023/05/27 18:20:26;;;;;;;17.85;4.78;;;16.80;32.50;;;;;;10154156;29;20242;-82
2023/05/27 18:25:29;;;;;;;21.17;3.70;;;16.50;23.50;;;;;;10173959;29;20279;-82
2023/05/27 18:30:32;;;;;;;10.35;2.60;;;16.30;27.70;;;;;;10173880;29;20326;-82
2023/05/27 18:35:34;;;;;;;4.43;1.40;;;16.30;32.90;;;;;;10166253;29;20314;-82
2023/05/27 18:40:39;;;;;;;8.43;1.95;;;16.20;30.40;;;;;;10167018;29;20292;-82
2023/05/27 18:45:54;;;;;;;4.57;1.58;;;15.80;31.40;;;;;;10155990;29;20294;-82
2023/05/27 18:51:01;;;;;;;4.82;1.65;;;15.50;32.20;;;;;;10191549;23;20336;-83
2023/05/27 18:56:04;;;;;;;9.57;1.92;;;15.20;34.70;;;;;;10186961;23;20276;-93
2023/05/27 19:01:07;;;;;;;3.50;2.40;;;14.90;37.40;;;;;;10154066;29;20963;-94
2023/05/27 19:06:09;;;;;;;4.30;2.15;;;14.70;39.70;;;;;;10173885;29;20276;-93
2023/05/27 19:11:12;;;;;;;9.48;2.20;;;14.50;45.30;;;;;;10151768;29;20775;-93
2023/05/27 19:16:15;;;;;;;7.20;1.92;;;14.40;42.90;;;;;;10148280;29;20236;-94
2023/05/27 19:21:18;;;;;;;4.90;2.08;;;14.00;45.40;;;;;;10168730;29;20204;-93
2023/05/27 19:26:23;;;;;;;6.03;2.00;;;13.70;55.50;;;;;;10153982;29;20251;-93
2023/05/27 19:31:25;;;;;;;7.55;2.33;;;13.60;52.10;;;;;;10171585;29;20681;-93
2023/05/27 19:36:28;;;;;;;8.60;2.47;;;13.60;50.80;;;;;;10153906;29;20211;-91
2023/05/27 19:41:31;;;;;;;4.72;2.38;;;13.50;65.60;;;;;;9825331;29;9999797;-92
2023/05/27 19:46:35;;;;;;;11.00;2.70;;;;;;;;;;10149760;29;20248;-91
2023/05/27 19:51:38;;;;;;;17.52;2.80;;;12.90;65.80;;;;;;10164854;29;20362;-92
2023/05/27 19:56:40;;;;;;;15.20;2.72;;;12.80;75.70;;;;;;10145945;29;20724;-91
2023/05/27 20:01:43;;;;;;;8.73;2.08;;;12.30;75.00;;;;;;10166112;29;20295;-91
2023/05/27 20:06:46;;;;;;;4.80;2.60;;;12.30;85.70;;;;;;10150186;29;20746;-91
2023/05/27 20:11:49;;;;;;;5.72;2.83;;;12.30;90.40;;;;;;10151378;29;20275;-91
2023/05/27 20:16:51;;;;;;;20.40;3.92;;;12.40;93.20;;;;;;10165235;29;20299;-91
2023/05/27 20:21:54;;;;;;;15.82;5.82;;;12.10;91.60;;;;;;10148408;29;20243;-91
2023/05/27 20:26:57;;;;;;;20.50;6.63;;;11.80;93.20;;;;;;10124618;29;20245;-91
2023/05/27 20:32:00;;;;;;;25.77;5.35;;;;;;;;;;10153188;29;20258;-91
2023/05/27 20:37:02;;;;;;;14.93;3.25;;;11.20;96.10;;;;;;10147901;29;20243;-92
2023/05/27 20:42:06;;;;;;;11.35;5.15;;;11.30;98.60;;;;;;10164394;29;20255;-90
2023/05/27 20:47:09;;;;;;;10.65;3.05;;;10.90;96.10;;;;;;10162554;29;20319;-90
2023/05/27 20:52:12;;;;;;;11.95;4.60;;;10.90;99.90;;;;;;10144740;29;20259;-92
2023/05/27 20:57:14;;;;;;;6.60;3.80;;;11.10;99.10;;;;;;10145471;29;20266;-91
2023/05/27 21:02:17;;;;;;;12.57;4.00;;;11.20;99.90;;;;;;10146666;29;20245;-95
2023/05/27 21:07:21;;;;;;;18.02;5.57;;;11.20;99.90;;;;;;10145561;29;20307;-93
2023/05/27 21:12:23;;;;;;;18.13;6.07;;;10.90;99.60;;;;;;10147842;29;20315;-93
2023/05/27 21:17:26;;;;;;;21.95;4.72;;;10.80;99.90;;;;;;10164657;29;20236;-93
2023/05/27 21:22:28;;;;;;;17.73;5.15;;;10.70;99.90;;;;;;10128404;29;20296;-93
2023/05/27 21:27:31;;;;;;;23.20;5.60;;;10.60;99.90;;;;;;10137088;29;20275;-92
2023/05/27 21:32:34;;;;;;;18.98;5.03;;;10.40;99.90;;;;;;10132811;29;20258;-93
2023/05/27 21:37:37;;;;;;;30.88;10.57;;;10.50;99.90;;;;;;10148094;29;20247;-93
2023/05/27 21:42:39;;;;;;;29.83;13.95;;;10.30;99.90;;;;;;10162410;29;20266;-92
2023/05/27 21:47:42;;;;;;;42.70;14.30;;;10.30;99.90;;;;;;10150732;29;20280;-93
2023/05/27 21:52:45;;;;;;;41.35;16.00;;;10.60;99.90;;;;;;10139090;29;20262;-93
2023/05/27 21:57:47;;;;;;;19.92;9.35;;;10.40;99.90;;;;;;10172759;29;20695;-93
2023/05/27 22:02:50;;;;;;;15.43;7.18;;;10.00;99.90;;;;;;10169672;29;20259;-92
2023/05/27 22:07:56;;;;;;;16.67;8.75;;;9.90;99.90;;;;;;10172652;29;20308;-93
2023/05/27 22:13:00;;;;;;;12.80;6.97;;;9.80;99.90;;;;;;10154623;29;20267;-93
2023/05/27 22:18:03;;;;;;;11.60;6.22;;;9.80;99.90;;;;;;10148980;29;20658;-92
2023/05/27 22:23:06;;;;;;;11.02;6.82;;;9.70;99.90;;;;;;10147526;29;20272;-94
2023/05/27 22:28:09;;;;;;;30.83;11.88;;;9.70;99.90;;;;;;10143693;29;20893;-93
2023/05/27 22:33:12;;;;;;;36.85;14.75;;;9.60;99.90;;;;;;10154951;29;20259;-94
2023/05/27 22:38:15;;;;;;;18.30;7.80;;;9.30;99.90;;;;;;10155331;29;21066;-93
2023/05/27 22:43:18;;;;;;;26.33;10.30;;;9.20;99.90;;;;;;10172182;29;20330;-93
2023/05/27 22:48:21;;;;;;;14.65;6.82;;;9.30;99.90;;;;;;10148263;29;20248;-96
2023/05/27 22:53:59;;;;;;;16.08;8.60;;;9.10;99.90;;;;;;10148008;29;20240;-94
2023/05/27 22:59:02;;;;;;;14.65;7.82;;;9.10;99.90;;;;;;10108402;29;20276;-93
2023/05/27 23:04:04;;;;;;;13.77;6.57;;;9.20;99.90;;;;;;10166913;29;20236;-94
2023/05/27 23:09:07;;;;;;;9.82;6.47;;;9.20;99.90;;;;;;10159350;29;20212;-95
2023/05/27 23:14:10;;;;;;;12.27;7.32;;;9.20;99.90;;;;;;10175744;29;20235;-94
2023/05/27 23:19:13;;;;;;;13.68;7.53;;;8.90;99.90;;;;;;10158689;29;20211;-95
2023/05/27 23:24:15;;;;;;;15.85;6.88;;;8.80;99.90;;;;;;10144732;29;20211;-95
2023/05/27 23:29:19;;;;;;;11.27;6.43;;;8.40;99.90;;;;;;10160870;29;20230;-94
2023/05/27 23:34:22;;;;;;;18.42;7.57;;;8.50;99.90;;;;;;10171027;29;20260;-95
2023/05/27 23:39:25;;;;;;;12.05;6.18;;;8.60;99.90;;;;;;10129321;29;20241;-95
2023/05/27 23:44:28;;;;;;;14.45;7.22;;;8.60;99.90;;;;;;10138152;29;20225;-95
2023/05/27 23:49:30;;;;;;;13.55;6.65;;;8.40;99.90;;;;;;10160616;29;20216;-94
2023/05/27 23:54:33;;;;;;;18.02;7.28;;;8.30;99.90;;;;;;10141863;29;20239;-95
2023/05/27 23:59:36;;;;;;;14.60;6.60;;;8.10;99.90;;;;;;10134099;29;20217;-95
